createdAt,value
2023-09-03T00:02:16.177Z,99640.18
2023-09-03T00:07:23.962Z,99643.23
2023-09-03T00:12:31.867Z,99650.11
2023-09-03T00:17:39.584Z,99642.58
2023-09-03T00:22:47.421Z,99631.15
2023-09-03T00:27:55.424Z,99628.11
2023-09-03T00:33:03.425Z,99628.82
2023-09-03T00:38:11.044Z,99628.33
2023-09-03T00:43:19.218Z,99624.57
2023-09-03T00:48:30.507Z,99621.75
2023-09-03T00:53:40.182Z,99632.46
2023-09-03T00:58:48.807Z,99631.27
2023-09-03T01:03:57.787Z,99628.83
2023-09-03T01:09:06.671Z,99622.00
2023-09-03T01:14:27.318Z,99621.66
2023-09-03T01:19:57.420Z,99618.95
2023-09-03T01:25:33.870Z,99615.46
2023-09-03T01:30:43.444Z,99617.44
2023-09-03T01:35:52.238Z,99619.86
2023-09-03T01:41:00.943Z,99620.33
2023-09-03T01:46:14.276Z,99626.30
2023-09-03T02:03:09.340Z,99635.90
2023-09-03T02:08:20.308Z,99632.67
2023-09-03T02:13:28.341Z,99629.07
2023-09-03T02:18:36.357Z,99619.77
2023-09-03T02:23:44.040Z,99607.46
2023-09-03T02:28:52.899Z,99605.59
2023-09-03T02:34:00.543Z,99602.87
2023-09-03T02:39:09.480Z,99595.11
2023-09-03T02:44:17.169Z,99582.29
2023-09-03T02:49:33.580Z,99580.20
2023-09-03T02:54:40.920Z,99574.40
2023-09-03T02:59:48.307Z,99567.11
2023-09-03T03:04:56.540Z,99578.71
2023-09-03T03:10:04.578Z,99589.14
2023-09-03T03:15:12.714Z,99594.66
2023-09-03T03:20:22.645Z,99600.66
2023-09-03T03:25:30.461Z,99603.77
2023-09-03T03:30:38.204Z,99609.20
2023-09-03T03:35:46.384Z,99610.71
2023-09-03T03:40:54.230Z,99610.91
2023-09-03T03:46:02.783Z,99608.58
2023-09-03T03:51:11.160Z,99600.18
2023-09-03T03:56:18.733Z,99601.34
2023-09-03T04:01:26.858Z,99599.69
2023-09-03T04:06:35.638Z,99593.98
2023-09-03T04:11:43.232Z,99596.24
2023-09-03T04:16:51.063Z,99594.66
2023-09-03T04:21:58.378Z,99584.25
2023-09-03T04:27:06.483Z,99588.96
2023-09-03T04:32:13.781Z,99584.23
2023-09-03T04:37:21.113Z,99596.09
2023-09-03T04:42:29.416Z,99590.92
2023-09-03T04:47:37.069Z,99597.95
2023-09-03T04:52:46.579Z,99593.88
2023-09-03T04:57:54.076Z,99609.77
2023-09-03T05:03:02.838Z,99652.39
2023-09-03T05:08:11.184Z,99674.40
2023-09-03T05:13:18.775Z,99669.66
2023-09-03T05:18:27.553Z,99652.75
2023-09-03T05:23:35.045Z,99641.52
2023-09-03T05:28:42.743Z,99622.36
2023-09-03T05:33:50.416Z,99615.24
2023-09-03T05:38:58.879Z,99627.59
2023-09-03T05:44:10.780Z,99634.16
2023-09-03T05:49:18.374Z,99633.21
2023-09-03T05:54:26.604Z,99639.02
2023-09-03T05:59:34.235Z,99646.55
2023-09-03T06:04:41.357Z,99649.86
2023-09-03T06:09:49.067Z,99647.16
2023-09-03T06:14:56.515Z,99654.52
2023-09-03T06:20:05.076Z,99649.61
2023-09-03T06:25:14.803Z,99655.11
2023-09-03T06:30:22.619Z,99651.84
2023-09-03T06:35:30.135Z,99651.19
2023-09-03T06:40:37.581Z,99654.04
2023-09-03T06:45:45.670Z,99643.55
2023-09-03T06:50:53.885Z,99661.11
2023-09-03T06:56:01.926Z,99666.64
2023-09-03T07:01:09.645Z,99668.02
2023-09-03T07:06:17.021Z,99672.31
2023-09-03T07:11:24.641Z,99665.50
2023-09-03T07:16:32.246Z,99671.33
2023-09-03T07:21:39.913Z,99668.89
2023-09-03T07:26:49.650Z,99678.36
2023-09-03T07:31:57.235Z,99675.00
2023-09-03T07:37:06.057Z,99672.84
2023-09-03T07:42:15.039Z,99684.20
2023-09-03T07:47:22.755Z,99693.94
2023-09-03T07:52:34.154Z,99716.11
2023-09-03T07:57:41.729Z,99715.54
2023-09-03T08:02:49.362Z,99705.66
2023-09-03T08:07:57.558Z,99706.84
2023-09-03T08:13:05.914Z,99709.14
2023-09-03T08:18:13.444Z,99723.23
2023-09-03T08:23:21.229Z,99731.48
2023-09-03T08:28:29.742Z,99732.52
2023-09-03T08:33:39.186Z,99737.07
2023-09-03T08:38:46.671Z,99737.50
2023-09-03T08:44:01.106Z,99745.83
2023-09-03T08:49:09.299Z,99743.26
2023-09-03T08:54:17.519Z,99749.83
2023-09-03T08:59:31.797Z,99751.61
2023-09-03T09:04:39.799Z,99752.53
2023-09-03T09:09:48.567Z,99751.20
2023-09-03T09:15:01.912Z,99744.02
2023-09-03T09:20:11.846Z,99742.05
2023-09-03T09:25:24.673Z,99741.35
2023-09-03T09:30:32.271Z,99743.11
2023-09-03T09:35:39.803Z,99737.46
2023-09-03T09:40:53.453Z,99737.87
2023-09-03T09:46:01.012Z,99736.96
2023-09-03T09:51:13.244Z,99731.21
2023-09-03T09:56:22.321Z,99729.17
2023-09-03T10:01:43.664Z,99719.98
2023-09-03T10:06:52.708Z,99717.34
2023-09-03T10:12:02.812Z,99715.58
2023-09-03T10:17:11.504Z,99710.77
2023-09-03T10:22:20.846Z,99716.83
2023-09-03T10:27:34.426Z,99718.23
2023-09-03T10:32:46.141Z,99712.11
2023-09-03T10:37:53.870Z,99711.71
2023-09-03T10:43:27.619Z,99707.57
2023-09-03T10:48:36.368Z,99716.42
2023-09-03T10:53:46.656Z,99727.66
2023-09-03T10:58:59.104Z,99722.23
2023-09-03T11:04:07.430Z,99722.91
2023-09-03T11:09:27.159Z,99723.25
2023-09-03T11:14:36.294Z,99723.27
2023-09-03T11:23:15.619Z,99716.90
2023-09-03T11:28:22.962Z,99714.86
2023-09-03T11:33:31.451Z,99702.99
2023-09-03T11:38:39.066Z,99711.23
2023-09-03T11:43:47.800Z,99704.60
2023-09-03T11:48:57.883Z,99702.70
2023-09-03T11:54:07.154Z,99688.27
2023-09-03T11:59:14.908Z,99692.02
2023-09-03T12:04:23.250Z,99687.16
2023-09-03T12:09:32.912Z,99675.02
2023-09-03T12:14:40.548Z,99668.88
2023-09-03T12:19:48.242Z,99672.45
2023-09-03T12:25:05.431Z,99669.19
2023-09-03T12:30:13.906Z,99668.68
2023-09-03T12:35:22.407Z,99665.66
2023-09-03T12:40:30.796Z,99667.37
2023-09-03T12:45:39.665Z,99674.45
2023-09-03T12:51:02.338Z,99677.56
2023-09-03T12:56:11.130Z,99679.41
2023-09-03T13:01:19.053Z,99678.42
2023-09-03T13:06:27.038Z,99678.89
2023-09-03T13:11:34.559Z,99679.59
2023-09-03T13:16:41.987Z,99676.88
2023-09-03T13:24:01.561Z,99681.08
2023-09-03T13:29:10.189Z,99673.55
2023-09-03T13:34:20.185Z,99672.41
2023-09-03T13:39:28.172Z,99671.75
2023-09-03T13:44:36.043Z,99670.90
2023-09-03T13:49:43.517Z,99673.52
2023-09-03T13:54:53.969Z,99672.57
2023-09-03T14:00:05.208Z,99678.66
2023-09-03T14:05:16.051Z,99683.49
2023-09-03T14:10:24.085Z,99676.13
2023-09-03T14:15:33.975Z,99681.77
2023-09-03T14:20:41.449Z,99680.79
2023-09-03T14:25:49.187Z,99679.23
2023-09-03T14:31:11.509Z,99676.00
2023-09-03T14:36:18.877Z,99674.16
2023-09-03T14:41:28.700Z,99676.11
2023-09-03T14:46:36.357Z,99675.63
2023-09-03T14:51:43.889Z,99681.14
2023-09-03T14:56:51.278Z,99681.00
2023-09-03T15:01:59.584Z,99684.45
2023-09-03T15:07:08.638Z,99689.27
2023-09-03T15:12:15.939Z,99691.90
2023-09-03T15:17:23.523Z,99691.33
2023-09-03T15:22:31.226Z,99693.05
2023-09-03T15:27:38.715Z,99702.58
2023-09-03T15:32:50.110Z,99704.13
2023-09-03T15:37:57.592Z,99706.60
2023-09-03T15:43:05.779Z,99707.59
2023-09-03T15:48:16.237Z,99708.01
2023-09-03T15:53:26.900Z,99710.11
2023-09-03T15:58:38.201Z,99709.94
2023-09-03T16:03:45.993Z,99718.12
2023-09-03T16:08:53.604Z,99724.48
2023-09-03T16:14:02.565Z,99729.98
2023-09-03T16:19:10.617Z,99727.08
2023-09-03T16:24:18.282Z,99732.98
2023-09-03T16:29:26.228Z,99733.38
2023-09-03T16:34:34.760Z,99733.30
2023-09-03T16:39:42.359Z,99736.44
2023-09-03T16:44:51.232Z,99742.39
2023-09-03T16:50:02.011Z,99748.10
2023-09-03T16:55:12.497Z,99753.38
2023-09-03T17:00:20.630Z,99752.79
2023-09-03T17:05:28.687Z,99762.58
2023-09-03T17:10:37.373Z,99769.81
2023-09-03T17:15:45.971Z,99775.56
2023-09-03T17:26:28.012Z,99787.86
2023-09-03T17:31:36.655Z,99789.02
2023-09-03T17:36:45.501Z,99792.81
2023-09-03T17:41:55.571Z,99799.55
2023-09-03T17:47:04.002Z,99804.75
2023-09-03T17:52:14.866Z,99810.61
2023-09-03T17:57:24.165Z,99808.22
2023-09-03T18:02:33.184Z,99810.61
2023-09-03T18:07:40.966Z,99821.54
2023-09-03T18:12:51.521Z,99833.86
2023-09-03T18:17:59.844Z,99840.18
2023-09-03T18:23:07.861Z,99844.02
2023-09-03T18:28:16.361Z,99838.30
2023-09-03T18:33:24.136Z,99845.71
2023-09-03T18:38:32.172Z,99843.66
2023-09-03T18:43:39.829Z,99848.98
2023-09-03T18:48:47.234Z,99863.08
2023-09-03T18:53:54.794Z,99865.35
2023-09-03T18:59:03.130Z,99868.80
2023-09-03T19:04:11.059Z,99866.55
2023-09-03T19:09:20.993Z,99865.95
2023-09-03T19:14:29.222Z,99871.61
2023-09-03T19:19:36.829Z,99880.41
2023-09-03T19:24:44.924Z,99881.04
2023-09-03T19:29:52.408Z,99890.09
2023-09-03T19:35:00.378Z,99892.17
2023-09-03T19:40:11.573Z,99887.83
2023-09-03T19:45:19.636Z,99891.02
2023-09-03T19:50:27.193Z,99886.94
2023-09-03T19:55:36.738Z,99878.61
2023-09-03T20:00:47.630Z,99877.20
2023-09-03T20:06:02.291Z,99881.73
2023-09-03T20:11:11.201Z,99890.21
2023-09-03T20:16:18.943Z,99895.09
2023-09-03T20:21:26.482Z,99898.14
2023-09-03T20:26:34.625Z,99897.42
2023-09-03T20:31:42.367Z,99899.23
2023-09-03T20:36:50.338Z,99904.06
2023-09-03T20:41:58.766Z,99902.02
2023-09-03T20:47:06.649Z,99888.61
2023-09-03T20:52:14.607Z,99879.83
2023-09-03T20:57:22.543Z,99872.00
2023-09-03T21:02:30.143Z,99869.77
2023-09-03T21:07:37.792Z,99870.80
2023-09-03T21:12:45.456Z,99877.65
2023-09-03T21:17:53.456Z,99877.52
2023-09-03T21:23:01.244Z,99868.30
2023-09-03T21:28:10.249Z,99874.05
2023-09-03T21:33:18.983Z,99876.23
2023-09-03T21:38:26.794Z,99882.50
2023-09-03T21:43:39.275Z,99882.70
2023-09-03T21:48:48.371Z,99889.20
2023-09-03T21:53:56.020Z,99891.27
2023-09-03T21:59:03.362Z,99900.53
2023-09-03T22:04:11.502Z,99901.81
2023-09-03T22:09:19.420Z,99903.11
2023-09-03T22:14:26.997Z,99910.92
2023-09-03T22:19:34.674Z,99915.43
2023-09-03T22:24:42.680Z,99922.44
2023-09-03T22:29:50.004Z,99927.88
2023-09-03T22:34:57.548Z,99934.64
2023-09-03T22:40:06.301Z,99945.84
2023-09-03T22:45:15.467Z,99943.29
2023-09-03T22:50:23.038Z,99943.46
2023-09-03T22:55:30.437Z,99938.79
2023-09-03T23:00:38.193Z,99939.02
2023-09-03T23:05:47.125Z,99952.56
2023-09-03T23:10:54.557Z,99942.59
2023-09-03T23:16:02.015Z,99943.03
2023-09-03T23:21:11.887Z,99940.61
2023-09-03T23:26:24.245Z,99936.81
2023-09-03T23:31:32.014Z,99927.73
2023-09-03T23:36:39.286Z,99923.87
2023-09-03T23:41:47.449Z,99918.92
2023-09-03T23:47:06.799Z,99915.20
2023-09-03T23:52:24.678Z,99905.77
2023-09-03T23:57:34.017Z,99911.07
